createdAt,value
2019-06-08T00:00:05.274Z,75.71
2019-06-08T00:01:05.235Z,75.23
2019-06-08T00:03:05.136Z,74.95
2019-06-08T00:04:05.099Z,75.33
2019-06-08T00:05:05.056Z,74.76
2019-06-08T00:06:05.008Z,74.66
2019-06-08T00:07:04.965Z,75.43
2019-06-08T00:08:04.920Z,76.00
2019-06-08T00:09:04.891Z,74.66
2019-06-08T00:10:04.837Z,74.57
2019-06-08T00:11:04.809Z,74.66
2019-06-08T00:12:04.750Z,73.99
2019-06-08T00:13:04.707Z,74.18
2019-06-08T00:14:04.667Z,74.27
2019-06-08T00:15:04.614Z,73.61
2019-06-08T00:16:04.574Z,73.90
2019-06-08T00:17:04.534Z,73.80
2019-06-08T00:18:04.492Z,73.32
2019-06-08T00:19:04.445Z,73.51
2019-06-08T00:20:04.399Z,73.13
2019-06-08T00:21:04.357Z,74.18
2019-06-08T00:23:32.692Z,74.18
2019-06-08T00:24:29.020Z,73.90
2019-06-08T00:25:28.980Z,73.90
2019-06-08T00:26:28.931Z,72.45
2019-06-08T00:27:28.886Z,72.55
2019-06-08T00:28:28.842Z,71.98
2019-06-08T00:29:28.801Z,71.98
2019-06-08T00:30:28.910Z,71.88
2019-06-08T00:31:28.713Z,71.40
2019-06-08T00:32:28.673Z,71.59
2019-06-08T00:33:28.625Z,71.78
2019-06-08T00:34:28.581Z,71.78
2019-06-08T00:35:28.536Z,71.50
2019-06-08T00:36:28.497Z,71.40
2019-06-08T00:37:28.465Z,71.88
2019-06-08T00:38:28.409Z,71.88
2019-06-08T00:39:28.369Z,71.50
2019-06-08T00:40:28.321Z,71.88
2019-06-08T00:41:28.281Z,71.40
2019-06-08T00:42:28.235Z,72.17
2019-06-08T00:43:28.191Z,72.36
2019-06-08T00:44:28.147Z,71.31
2019-06-08T00:45:28.107Z,71.11
2019-06-08T00:46:28.067Z,71.21
2019-06-08T00:47:46.149Z,71.88
2019-06-08T00:48:28.777Z,72.36
2019-06-08T00:49:29.104Z,72.74
2019-06-08T00:50:29.225Z,72.07
2019-06-08T00:51:29.695Z,71.69
2019-06-08T00:52:27.799Z,71.02
2019-06-08T00:53:27.757Z,70.73
2019-06-08T00:54:27.711Z,71.98
2019-06-08T00:55:27.673Z,71.50
2019-06-08T00:56:27.631Z,71.40
2019-06-08T00:57:27.592Z,70.44
2019-06-08T00:58:27.541Z,70.06
2019-06-08T01:00:27.466Z,70.06
2019-06-08T01:01:28.251Z,69.77
2019-06-08T01:02:28.587Z,70.54
2019-06-08T01:03:27.324Z,70.25
2019-06-08T01:04:27.319Z,70.06
2019-06-08T01:05:27.236Z,69.87
2019-06-08T01:06:27.596Z,69.10
2019-06-08T01:07:27.147Z,69.68
2019-06-08T01:08:27.484Z,69.77
2019-06-08T01:09:27.084Z,69.39
2019-06-08T01:10:27.574Z,70.15
2019-06-08T01:11:27.119Z,69.96
2019-06-08T01:12:26.934Z,70.44
2019-06-08T01:13:26.997Z,69.96
2019-06-08T01:14:27.143Z,69.77
2019-06-08T01:15:32.860Z,70.15
2019-06-08T01:16:27.081Z,69.68
2019-06-08T01:17:27.463Z,70.44
2019-06-08T01:18:27.433Z,70.35
2019-06-08T01:19:27.437Z,70.44
2019-06-08T01:20:27.522Z,69.39
2019-06-08T01:21:27.727Z,70.35
2019-06-08T01:22:27.762Z,70.06
2019-06-08T01:23:27.774Z,70.15
2019-06-08T01:24:27.805Z,69.48
2019-06-08T01:25:26.374Z,68.72
2019-06-08T01:26:26.322Z,69.10
2019-06-08T01:27:26.279Z,69.39
2019-06-08T01:28:26.244Z,69.39
2019-06-08T01:29:26.328Z,70.15
2019-06-08T01:30:26.434Z,70.06
2019-06-08T01:31:26.605Z,69.68
2019-06-08T01:32:26.384Z,70.73
2019-06-08T01:33:26.578Z,69.87
2019-06-08T01:35:26.899Z,69.48
2019-06-08T01:36:27.402Z,68.33
2019-06-08T01:37:26.941Z,68.52
2019-06-08T01:38:27.111Z,68.43
2019-06-08T01:39:25.758Z,68.62
2019-06-08T01:40:25.711Z,68.72
2019-06-08T01:41:25.673Z,68.14
2019-06-08T01:42:25.627Z,68.14
2019-06-08T01:43:25.857Z,68.33
2019-06-08T01:44:25.672Z,67.85
2019-06-08T01:45:25.688Z,67.57
2019-06-08T01:46:25.913Z,68.24
2019-06-08T01:47:26.185Z,69.39
2019-06-08T01:48:26.241Z,68.62
2019-06-08T01:49:26.180Z,69.96
2019-06-08T01:50:26.390Z,69.39
2019-06-08T01:51:26.503Z,68.72
2019-06-08T01:52:25.197Z,67.76
2019-06-08T01:53:25.151Z,67.76
2019-06-08T01:54:25.110Z,67.85
2019-06-08T01:55:25.179Z,68.24
2019-06-08T01:56:25.019Z,67.95
2019-06-08T01:57:25.270Z,67.66
2019-06-08T01:58:25.344Z,67.85
2019-06-08T01:59:25.316Z,67.09
2019-06-08T02:00:39.493Z,67.38
2019-06-08T02:01:25.497Z,68.43
2019-06-08T02:02:25.898Z,67.57
2019-06-08T02:03:26.151Z,66.51
2019-06-08T02:04:25.938Z,67.18
2019-06-08T02:05:24.631Z,67.57
2019-06-08T02:06:24.587Z,67.28
2019-06-08T02:07:24.538Z,66.89
2019-06-08T02:08:24.499Z,67.76
2019-06-08T02:09:24.614Z,68.14
2019-06-08T02:10:24.464Z,67.76
2019-06-08T02:11:24.551Z,68.14
2019-06-08T02:12:24.795Z,68.33
2019-06-08T02:13:24.920Z,68.52
2019-06-08T02:14:25.011Z,67.66
2019-06-08T02:15:25.201Z,67.47
2019-06-08T02:16:25.647Z,67.47
2019-06-08T02:17:25.142Z,67.09
2019-06-08T02:18:36.563Z,66.67
2019-06-08T02:19:24.021Z,67.25
2019-06-08T02:20:23.982Z,67.38
2019-06-08T02:21:23.936Z,66.77
2019-06-08T02:22:23.888Z,67.44
2019-06-08T02:23:23.846Z,66.89
2019-06-08T02:24:23.803Z,66.77
2019-06-08T02:25:23.761Z,66.86
2019-06-08T02:26:26.958Z,66.67
2019-06-08T02:27:23.672Z,67.25
2019-06-08T02:28:23.627Z,66.38
2019-06-08T02:29:23.583Z,66.19
2019-06-08T02:30:23.550Z,67.63
2019-06-08T02:31:23.498Z,67.34
2019-06-08T02:32:23.455Z,67.15
2019-06-08T02:33:23.414Z,67.09
2019-06-08T02:34:23.367Z,67.05
2019-06-08T02:35:23.329Z,67.15
2019-06-08T02:36:23.281Z,67.44
2019-06-08T02:37:23.239Z,66.38
2019-06-08T02:38:23.193Z,67.15
2019-06-08T02:39:23.148Z,66.77
2019-06-08T02:40:23.104Z,67.05
2019-06-08T02:41:23.062Z,66.67
2019-06-08T02:42:23.017Z,66.29
2019-06-08T02:43:22.982Z,66.38
2019-06-08T02:44:22.931Z,67.25
2019-06-08T02:45:22.910Z,67.44
2019-06-08T02:46:22.845Z,67.91
2019-06-08T02:47:22.805Z,68.01
2019-06-08T02:48:22.757Z,66.58
2019-06-08T02:49:22.719Z,66.77
2019-06-08T02:50:22.669Z,67.54
2019-06-08T02:51:22.623Z,67.82
2019-06-08T02:52:22.584Z,68.21
2019-06-08T02:53:22.540Z,68.11
2019-06-08T02:54:22.502Z,67.72
2019-06-08T02:55:22.456Z,67.15
2019-06-08T02:56:22.418Z,67.63
2019-06-08T02:57:22.579Z,67.34
2019-06-08T02:58:22.333Z,66.38
2019-06-08T02:59:22.279Z,66.96
2019-06-08T03:00:22.243Z,66.86
2019-06-08T03:01:22.193Z,66.38
2019-06-08T03:02:22.148Z,66.38
2019-06-08T03:03:22.508Z,66.09
2019-06-08T03:04:22.060Z,65.05
2019-06-08T03:05:22.027Z,66.09
2019-06-08T03:06:21.982Z,64.95
2019-06-08T03:07:21.929Z,64.85
2019-06-08T03:08:21.891Z,65.62
2019-06-08T03:09:21.848Z,66.09
2019-06-08T03:10:21.797Z,66.09
2019-06-08T03:11:21.761Z,65.62
2019-06-08T03:12:21.712Z,65.81
2019-06-08T03:13:21.676Z,66.58
2019-06-08T03:14:21.624Z,66.38
2019-06-08T03:15:21.578Z,65.71
2019-06-08T03:16:21.546Z,65.91
2019-06-08T03:17:21.493Z,66.29
2019-06-08T03:18:21.449Z,65.23
2019-06-08T03:19:22.885Z,66.00
2019-06-08T03:20:21.360Z,65.71
2019-06-08T03:21:21.319Z,65.71
2019-06-08T03:22:21.277Z,66.48
2019-06-08T03:23:21.345Z,66.77
2019-06-08T03:24:21.190Z,66.38
2019-06-08T03:25:21.141Z,65.62
2019-06-08T03:26:21.113Z,65.81
2019-06-08T03:27:21.055Z,65.42
2019-06-08T03:28:21.012Z,65.68
2019-06-08T03:29:20.977Z,66.16
2019-06-08T03:30:20.928Z,65.81
2019-06-08T03:31:20.882Z,65.62
2019-06-08T03:32:20.839Z,66.16
2019-06-08T03:33:20.795Z,66.64
2019-06-08T03:34:20.761Z,65.71
2019-06-08T03:35:20.719Z,66.29
2019-06-08T03:36:20.681Z,67.15
2019-06-08T03:37:20.618Z,66.29
2019-06-08T03:38:20.576Z,66.29
2019-06-08T03:39:20.526Z,66.09
2019-06-08T03:40:20.491Z,65.68
2019-06-08T03:41:20.443Z,65.49
2019-06-08T03:42:20.402Z,65.78
2019-06-08T03:43:20.355Z,66.06
2019-06-08T03:44:20.332Z,66.16
2019-06-08T03:45:20.271Z,65.81
2019-06-08T03:46:20.237Z,65.97
2019-06-08T03:47:20.183Z,65.33
2019-06-08T03:48:20.152Z,65.39
2019-06-08T03:49:37.111Z,65.33
2019-06-08T03:50:20.051Z,65.39
2019-06-08T03:51:20.001Z,65.97
2019-06-08T03:52:19.962Z,66.77
2019-06-08T03:53:19.920Z,67.79
2019-06-08T03:54:19.873Z,68.55
2019-06-08T03:55:19.895Z,68.27
2019-06-08T03:56:19.791Z,68.55
2019-06-08T03:57:19.741Z,69.60
2019-06-08T03:58:19.717Z,68.94
2019-06-08T04:00:19.619Z,68.65
2019-06-08T04:01:19.566Z,68.36
2019-06-08T04:02:19.527Z,69.32
2019-06-08T04:03:19.480Z,68.46
2019-06-08T04:04:19.441Z,67.60
2019-06-08T04:05:19.393Z,66.83
2019-06-08T04:06:19.348Z,67.88
2019-06-08T04:07:19.306Z,67.21
2019-06-08T04:08:19.260Z,67.60
2019-06-08T04:09:19.218Z,66.93
2019-06-08T04:10:19.174Z,66.64
2019-06-08T04:11:19.142Z,67.11
2019-06-08T04:12:19.094Z,67.21
2019-06-08T04:13:19.041Z,67.50
2019-06-08T04:14:19.000Z,67.11
2019-06-08T04:15:18.956Z,67.11
2019-06-08T04:16:18.914Z,67.11
2019-06-08T04:17:18.867Z,67.21
2019-06-08T04:18:18.839Z,67.60
2019-06-08T04:19:18.779Z,67.31
2019-06-08T04:20:18.737Z,68.17
2019-06-08T04:21:18.693Z,67.60
2019-06-08T04:22:18.645Z,67.98
2019-06-08T04:23:18.629Z,67.50
2019-06-08T04:24:18.560Z,67.88
2019-06-08T04:25:18.533Z,67.69
2019-06-08T04:26:18.472Z,67.79
2019-06-08T04:27:18.430Z,67.41
2019-06-08T04:28:18.386Z,67.60
2019-06-08T04:29:18.343Z,66.93
2019-06-08T04:30:18.298Z,67.79
2019-06-08T04:31:18.287Z,67.79
2019-06-08T04:32:18.208Z,67.60
2019-06-08T04:33:18.172Z,67.79
2019-06-08T04:34:18.119Z,67.50
2019-06-08T04:35:18.077Z,68.55
2019-06-08T04:36:18.034Z,68.46
2019-06-08T04:37:17.989Z,68.27
2019-06-08T04:38:17.947Z,69.32
2019-06-08T04:39:17.907Z,69.32
2019-06-08T04:40:17.859Z,68.74
2019-06-08T04:41:17.812Z,68.17
2019-06-08T04:42:17.771Z,67.79
2019-06-08T04:43:17.728Z,67.98
2019-06-08T04:44:17.679Z,68.65
2019-06-08T04:45:17.647Z,68.55
2019-06-08T04:46:17.598Z,68.55
2019-06-08T04:47:17.551Z,68.46
2019-06-08T04:48:17.512Z,68.94
2019-06-08T04:49:17.469Z,69.32
2019-06-08T04:50:23.583Z,68.55
2019-06-08T04:51:17.382Z,68.65
2019-06-08T04:52:17.334Z,68.46
2019-06-08T04:53:17.320Z,68.46
2019-06-08T04:54:17.242Z,68.65
2019-06-08T04:55:17.200Z,68.46
2019-06-08T04:56:17.166Z,68.65
2019-06-08T04:57:17.116Z,67.98
2019-06-08T04:58:17.072Z,68.46
2019-06-08T04:59:17.026Z,68.36
2019-06-08T05:00:16.981Z,68.65
2019-06-08T05:01:16.937Z,67.98
2019-06-08T05:02:16.897Z,68.46
2019-06-08T05:03:16.851Z,68.65
2019-06-08T05:04:16.813Z,68.46
2019-06-08T05:05:16.768Z,68.74
2019-06-08T05:06:16.719Z,67.60
2019-06-08T05:07:16.674Z,67.69
2019-06-08T05:08:16.670Z,67.79
2019-06-08T05:09:16.586Z,68.17
2019-06-08T05:10:16.556Z,67.79
2019-06-08T05:11:16.499Z,68.07
2019-06-08T05:12:16.455Z,68.65
2019-06-08T05:13:16.410Z,67.79
2019-06-08T05:14:16.368Z,67.69
2019-06-08T05:15:16.322Z,68.65
2019-06-08T05:16:16.299Z,67.69
2019-06-08T05:17:16.236Z,67.60
2019-06-08T05:18:16.191Z,68.55
2019-06-08T05:19:16.147Z,68.07
2019-06-08T05:20:16.101Z,68.46
2019-06-08T05:21:16.066Z,68.07
2019-06-08T05:22:16.015Z,68.27
2019-06-08T05:23:15.972Z,68.07
2019-06-08T05:24:15.947Z,68.17
2019-06-08T05:25:15.888Z,67.98
2019-06-08T05:26:15.841Z,68.46
2019-06-08T05:27:15.792Z,68.55
2019-06-08T05:28:15.754Z,68.46
2019-06-08T05:29:15.708Z,67.60
2019-06-08T05:30:15.676Z,67.60
2019-06-08T05:31:15.625Z,67.69
2019-06-08T05:32:15.579Z,67.98
2019-06-08T05:33:15.531Z,67.41
2019-06-08T05:34:15.490Z,67.69
2019-06-08T05:35:15.441Z,67.60
2019-06-08T05:36:15.400Z,67.60
2019-06-08T05:37:15.357Z,67.69
2019-06-08T05:38:15.311Z,67.50
2019-06-08T05:39:15.268Z,67.21
2019-06-08T05:40:15.226Z,66.64
2019-06-08T05:41:15.181Z,66.83
2019-06-08T05:42:15.139Z,67.60
2019-06-08T05:43:15.094Z,67.21
2019-06-08T05:44:15.068Z,66.74
2019-06-08T05:45:15.006Z,66.45
2019-06-08T05:46:14.964Z,67.11
2019-06-08T05:47:14.923Z,67.41
2019-06-08T05:48:14.877Z,67.79
2019-06-08T05:49:14.835Z,67.31
2019-06-08T05:50:14.796Z,67.31
2019-06-08T05:51:14.741Z,67.21
2019-06-08T05:52:14.699Z,67.21
2019-06-08T05:53:14.653Z,66.35
2019-06-08T05:54:14.609Z,67.31
2019-06-08T05:55:14.567Z,67.41
2019-06-08T05:56:14.526Z,67.79
2019-06-08T05:57:14.482Z,67.98
2019-06-08T05:58:14.438Z,67.69
2019-06-08T05:59:14.389Z,66.64
2019-06-08T06:00:14.348Z,66.64
2019-06-08T06:01:14.305Z,66.45
2019-06-08T06:02:14.264Z,67.69
2019-06-08T06:03:14.219Z,67.41
2019-06-08T06:04:14.173Z,67.88
2019-06-08T06:05:14.128Z,67.69
2019-06-08T06:06:14.089Z,68.74
2019-06-08T06:07:14.039Z,67.88
2019-06-08T06:08:18.767Z,67.60
2019-06-08T06:09:13.950Z,67.98
2019-06-08T06:10:13.911Z,67.79
2019-06-08T06:11:13.865Z,68.46
2019-06-08T06:12:13.824Z,67.69
2019-06-08T06:13:13.787Z,67.79
2019-06-08T06:14:13.734Z,67.41
2019-06-08T06:15:13.692Z,68.17
2019-06-08T06:16:13.647Z,67.50
2019-06-08T06:17:13.605Z,68.17
2019-06-08T06:18:13.565Z,67.69
2019-06-08T06:19:13.514Z,67.88
2019-06-08T06:20:13.472Z,67.41
2019-06-08T06:21:13.436Z,66.93
2019-06-08T06:22:13.382Z,67.98
2019-06-08T06:23:13.338Z,69.32
2019-06-08T06:24:13.294Z,68.65
2019-06-08T06:25:13.253Z,68.46
2019-06-08T06:26:13.206Z,68.36
2019-06-08T06:27:13.161Z,68.07
2019-06-08T06:28:13.120Z,67.98
2019-06-08T06:29:13.097Z,69.42
2019-06-08T06:30:13.033Z,69.32
2019-06-08T06:31:12.994Z,69.13
2019-06-08T06:32:12.943Z,69.32
2019-06-08T06:33:12.900Z,68.65
2019-06-08T06:34:12.860Z,69.42
2019-06-08T06:35:12.813Z,69.70
2019-06-08T06:36:12.768Z,68.49
2019-06-08T06:37:12.725Z,68.01
2019-06-08T06:38:12.686Z,68.49
2019-06-08T06:39:12.640Z,68.68
2019-06-08T06:40:12.597Z,67.44
2019-06-08T06:41:12.556Z,68.21
2019-06-08T06:42:12.506Z,68.49
2019-06-08T06:43:12.464Z,67.34
2019-06-08T06:44:12.422Z,68.11
2019-06-08T06:45:12.373Z,67.63
2019-06-08T06:46:12.332Z,67.63
2019-06-08T06:47:12.289Z,67.15
2019-06-08T06:48:12.250Z,67.66
2019-06-08T06:49:12.199Z,67.82
2019-06-08T06:50:12.155Z,67.18
2019-06-08T06:51:25.241Z,67.18
2019-06-08T06:52:12.069Z,67.76
2019-06-08T06:53:12.028Z,67.18
2019-06-08T06:54:11.984Z,67.38
2019-06-08T06:55:11.938Z,68.24
2019-06-08T06:56:11.894Z,66.71
2019-06-08T06:57:11.853Z,66.32
2019-06-08T06:58:11.818Z,67.18
2019-06-08T06:59:11.763Z,67.18
2019-06-08T07:00:11.721Z,67.18
2019-06-08T07:01:11.677Z,66.32
2019-06-08T07:02:11.638Z,66.32
2019-06-08T07:03:11.598Z,67.18
2019-06-08T07:04:11.544Z,66.32
2019-06-08T07:05:11.502Z,66.42
2019-06-08T07:06:11.468Z,66.89
2019-06-08T07:07:11.417Z,66.80
2019-06-08T07:08:11.375Z,67.28
2019-06-08T07:09:11.331Z,66.32
2019-06-08T07:10:11.284Z,66.32
2019-06-08T07:11:11.243Z,66.51
2019-06-08T07:12:11.198Z,66.22
2019-06-08T07:13:11.156Z,65.55
2019-06-08T07:14:11.115Z,65.75
2019-06-08T07:15:11.065Z,66.22
2019-06-08T07:16:18.285Z,67.85
2019-06-08T07:17:10.979Z,67.66
2019-06-08T07:18:10.937Z,68.33
2019-06-08T07:19:10.904Z,68.05
2019-06-08T07:20:10.850Z,66.35
2019-06-08T07:21:10.813Z,66.35
2019-06-08T07:22:10.767Z,66.45
2019-06-08T07:23:10.723Z,66.93
2019-06-08T07:24:10.678Z,67.32
2019-06-08T07:25:10.635Z,66.32
2019-06-08T07:26:10.607Z,66.35
2019-06-08T07:27:10.545Z,66.32
2019-06-08T07:28:10.501Z,66.16
2019-06-08T07:29:10.461Z,67.22
2019-06-08T07:30:10.427Z,67.41
2019-06-08T07:31:10.375Z,67.50
2019-06-08T07:32:10.348Z,67.32
2019-06-08T07:33:10.284Z,66.64
2019-06-08T07:34:10.243Z,66.93
2019-06-08T07:35:10.215Z,65.01
2019-06-08T07:36:10.155Z,65.68
2019-06-08T07:37:10.124Z,66.16
2019-06-08T07:38:10.074Z,65.62
2019-06-08T07:39:10.026Z,67.92
2019-06-08T07:40:09.988Z,66.19
2019-06-08T07:41:09.938Z,66.10
2019-06-08T07:42:09.897Z,66.19
2019-06-08T07:43:09.851Z,65.52
2019-06-08T07:44:09.810Z,65.52
2019-06-08T07:45:09.767Z,65.14
2019-06-08T07:46:09.724Z,64.95
2019-06-08T07:47:09.684Z,65.33
2019-06-08T07:48:09.639Z,64.85
2019-06-08T07:49:09.819Z,64.37
2019-06-08T07:50:09.554Z,64.95
2019-06-08T07:51:09.518Z,65.23
2019-06-08T07:52:10.939Z,65.81
2019-06-08T07:53:09.425Z,65.81
2019-06-08T07:54:09.390Z,65.52
2019-06-08T07:55:09.332Z,65.43
2019-06-08T07:56:09.303Z,65.23
2019-06-08T07:57:09.261Z,65.05
2019-06-08T07:58:09.222Z,64.37
2019-06-08T07:59:09.187Z,64.76
2019-06-08T08:00:09.881Z,65.62
2019-06-08T08:01:09.103Z,66.29
2019-06-08T08:02:09.032Z,65.81
2019-06-08T08:03:08.995Z,65.33
2019-06-08T08:04:08.949Z,65.05
2019-06-08T08:05:08.920Z,66.19
2019-06-08T08:06:08.865Z,64.95
2019-06-08T08:07:08.819Z,64.66
2019-06-08T08:08:08.778Z,65.23
2019-06-08T08:09:08.740Z,65.52
2019-06-08T08:10:08.717Z,64.95
2019-06-08T08:11:08.646Z,64.95
2019-06-08T08:12:12.059Z,64.85
2019-06-08T08:13:08.564Z,64.82
2019-06-08T08:14:08.526Z,64.92
2019-06-08T08:15:08.471Z,64.37
2019-06-08T08:17:08.393Z,64.18
2019-06-08T08:18:08.345Z,65.52
2019-06-08T08:19:08.313Z,64.18
2019-06-08T08:20:08.263Z,64.76
2019-06-08T08:21:21.379Z,65.52
2019-06-08T08:22:22.117Z,64.09
2019-06-08T08:23:09.173Z,64.18
2019-06-08T08:24:08.087Z,64.66
2019-06-08T08:25:08.390Z,64.18
2019-06-08T08:26:08.001Z,64.28
2019-06-08T08:27:08.536Z,64.66
2019-06-08T08:28:08.254Z,64.28
2019-06-08T08:29:08.480Z,65.05
2019-06-08T08:30:08.443Z,64.92
2019-06-08T08:31:10.846Z,64.63
2019-06-08T08:32:09.905Z,64.63
2019-06-08T08:33:07.954Z,65.01
2019-06-08T08:34:09.030Z,65.11
2019-06-08T08:35:08.868Z,65.11
2019-06-08T08:36:07.571Z,64.53
2019-06-08T08:37:09.645Z,65.05
2019-06-08T08:38:07.791Z,64.92
2019-06-08T08:39:08.443Z,64.82
2019-06-08T08:40:07.843Z,64.95
2019-06-08T08:41:10.626Z,64.85
2019-06-08T08:42:08.450Z,64.95
2019-06-08T08:43:09.192Z,65.23
2019-06-08T08:44:07.998Z,63.79
2019-06-08T08:45:08.684Z,65.05
2019-06-08T08:46:07.655Z,65.14
2019-06-08T08:47:07.638Z,64.28
2019-06-08T08:48:21.455Z,63.42
2019-06-08T08:49:11.980Z,63.42
2019-06-08T08:50:07.433Z,64.37
2019-06-08T08:51:08.592Z,63.89
2019-06-08T08:52:11.214Z,63.32
2019-06-08T08:53:08.348Z,62.45
2019-06-08T08:54:08.505Z,62.16
2019-06-08T08:55:08.365Z,62.74
2019-06-08T08:56:07.328Z,62.74
2019-06-08T08:57:08.400Z,62.45
2019-06-08T08:58:08.378Z,62.36
2019-06-08T08:59:07.887Z,62.74
2019-06-08T09:00:08.586Z,63.51
2019-06-08T09:01:08.215Z,63.22
2019-06-08T09:02:08.350Z,63.22
2019-06-08T09:03:21.970Z,63.83
2019-06-08T09:04:08.578Z,63.51
2019-06-08T09:05:08.348Z,64.98
2019-06-08T09:06:08.512Z,63.35
2019-06-08T09:07:09.623Z,62.01
2019-06-08T09:08:08.640Z,61.91
2019-06-08T09:09:08.686Z,63.45
2019-06-08T09:10:08.601Z,63.35
2019-06-08T09:11:08.159Z,63.25
2019-06-08T09:12:08.095Z,62.58
2019-06-08T09:13:09.189Z,62.87
2019-06-08T09:14:10.876Z,63.16
2019-06-08T09:15:08.308Z,63.54
2019-06-08T09:16:07.987Z,62.87
2019-06-08T09:17:08.272Z,62.96
2019-06-08T09:18:07.939Z,63.45
2019-06-08T09:19:08.320Z,64.12
2019-06-08T09:20:05.683Z,62.58
2019-06-08T09:21:08.179Z,62.87
2019-06-08T09:22:05.594Z,62.96
2019-06-08T09:23:12.818Z,62.87
2019-06-08T09:24:07.603Z,63.64
2019-06-08T09:25:05.479Z,64.31
2019-06-08T09:26:11.657Z,63.45
2019-06-08T09:27:07.808Z,62.96
2019-06-08T09:28:05.338Z,62.87
2019-06-08T09:29:10.736Z,61.62
2019-06-08T09:30:05.294Z,61.72
2019-06-08T09:31:05.227Z,61.81
2019-06-08T09:32:05.162Z,61.91
2019-06-08T09:33:07.817Z,62.58
2019-06-08T09:34:11.118Z,61.91
2019-06-08T09:35:05.031Z,61.91
2019-06-08T09:36:05.759Z,62.96
2019-06-08T09:37:05.229Z,63.45
2019-06-08T09:38:05.144Z,64.02
2019-06-08T09:39:09.441Z,63.16
2019-06-08T09:40:04.861Z,62.01
2019-06-08T09:41:05.432Z,62.77
2019-06-08T09:42:05.175Z,62.96
2019-06-08T09:43:10.331Z,62.58
2019-06-08T09:44:05.962Z,63.16
2019-06-08T09:45:05.555Z,61.81
2019-06-08T09:46:05.538Z,62.01
2019-06-08T09:47:11.098Z,61.91
2019-06-08T09:48:06.445Z,61.91
2019-06-08T09:49:08.448Z,61.24
2019-06-08T09:50:05.636Z,61.81
2019-06-08T09:51:05.702Z,60.85
2019-06-08T09:52:05.348Z,60.47
2019-06-08T09:53:20.051Z,60.57
2019-06-08T09:54:06.290Z,60.85
2019-06-08T09:55:06.899Z,61.14
2019-06-08T09:56:06.547Z,61.05
2019-06-08T09:57:06.020Z,61.52
2019-06-08T09:58:08.096Z,62.96
2019-06-08T09:59:07.123Z,63.76
2019-06-08T10:00:14.511Z,62.52
2019-06-08T10:01:06.028Z,61.08
2019-06-08T10:02:09.416Z,61.17
2019-06-08T10:03:06.170Z,61.27
2019-06-08T10:04:06.096Z,61.17
2019-06-08T10:05:04.494Z,61.94
2019-06-08T10:06:08.343Z,61.27
2019-06-08T10:07:04.307Z,61.84
2019-06-08T10:08:04.577Z,61.81
2019-06-08T10:09:04.841Z,62.10
2019-06-08T10:10:04.780Z,61.84
2019-06-08T10:11:05.875Z,60.98
2019-06-08T10:12:05.014Z,61.46
2019-06-08T10:13:06.176Z,62.01
2019-06-08T10:14:05.356Z,62.10
2019-06-08T10:15:04.650Z,61.84
2019-06-08T10:16:05.725Z,61.55
2019-06-08T10:17:04.300Z,61.55
2019-06-08T10:18:03.689Z,62.48
2019-06-08T10:19:05.189Z,62.77
2019-06-08T10:20:04.489Z,61.55
2019-06-08T10:21:04.570Z,61.75
2019-06-08T10:22:03.067Z,61.55
2019-06-08T10:23:05.211Z,60.95
2019-06-08T10:24:05.946Z,61.14
2019-06-08T10:25:06.587Z,61.14
2019-06-08T10:26:04.423Z,61.52
2019-06-08T10:27:03.537Z,61.14
2019-06-08T10:28:10.128Z,61.62
2019-06-08T10:29:05.167Z,61.91
2019-06-08T10:30:04.309Z,61.81
2019-06-08T10:31:03.707Z,62.01
2019-06-08T10:32:03.700Z,62.87
2019-06-08T10:33:04.736Z,61.91
2019-06-08T10:34:03.869Z,62.19
2019-06-08T10:35:04.268Z,62.68
2019-06-08T10:36:05.247Z,62.48
2019-06-08T10:37:06.756Z,62.68
2019-06-08T10:38:06.501Z,62.48
2019-06-08T10:39:03.786Z,62.96
2019-06-08T10:40:04.339Z,62.96
2019-06-08T10:41:09.166Z,61.91
2019-06-08T10:42:03.582Z,61.84
2019-06-08T10:43:03.445Z,61.27
2019-06-08T10:44:03.373Z,61.17
2019-06-08T10:45:06.514Z,60.88
2019-06-08T10:46:08.504Z,60.60
2019-06-08T10:47:04.030Z,60.78
2019-06-08T10:48:03.249Z,60.69
2019-06-08T10:49:01.992Z,60.43
2019-06-08T10:50:07.567Z,60.24
2019-06-08T10:51:03.725Z,60.43
2019-06-08T10:52:03.689Z,59.76
2019-06-08T10:53:04.044Z,59.66
2019-06-08T10:54:02.234Z,60.24
2019-06-08T10:55:03.685Z,60.24
2019-06-08T10:56:03.014Z,59.76
2019-06-08T10:57:04.103Z,59.28
2019-06-08T10:58:02.373Z,59.19
2019-06-08T10:59:03.532Z,59.76
2019-06-08T11:00:10.837Z,60.05
2019-06-08T11:01:03.970Z,61.04
2019-06-08T11:02:05.123Z,60.66
2019-06-08T11:03:03.321Z,60.46
2019-06-08T11:04:01.971Z,60.56
2019-06-08T11:05:04.556Z,59.69
2019-06-08T11:06:02.883Z,59.99
2019-06-08T11:07:05.653Z,60.56
2019-06-08T11:08:02.552Z,59.38
2019-06-08T11:09:04.297Z,59.47
2019-06-08T11:10:02.037Z,58.99
2019-06-08T11:11:01.538Z,59.38
2019-06-08T11:12:01.961Z,59.95
2019-06-08T11:13:06.291Z,59.28
2019-06-08T11:14:02.524Z,59.66
2019-06-08T11:15:01.992Z,59.47
2019-06-08T11:16:02.425Z,59.47
2019-06-08T11:17:00.747Z,60.34
2019-06-08T11:18:03.539Z,60.43
2019-06-08T11:19:02.616Z,60.75
2019-06-08T11:20:02.475Z,61.43
2019-06-08T11:21:01.955Z,60.59
2019-06-08T11:22:02.863Z,59.44
2019-06-08T11:23:02.089Z,59.92
2019-06-08T11:24:07.418Z,58.37
2019-06-08T11:25:01.996Z,57.83
2019-06-08T11:26:04.577Z,56.77
2019-06-08T11:27:01.279Z,58.22
2019-06-08T11:28:01.737Z,59.44
2019-06-08T11:29:01.534Z,58.98
2019-06-08T11:30:02.930Z,58.37
2019-06-08T11:30:59.983Z,58.31
2019-06-08T11:32:00.639Z,56.93
2019-06-08T11:33:00.006Z,56.36
2019-06-08T11:34:00.483Z,56.65
2019-06-08T11:34:59.952Z,57.51
2019-06-08T11:36:02.908Z,57.13
2019-06-08T11:37:01.875Z,57.51
2019-06-08T11:38:00.206Z,57.51
2019-06-08T11:39:00.506Z,56.93
2019-06-08T11:39:59.861Z,56.65
2019-06-08T11:41:00.996Z,56.65
2019-06-08T11:42:00.280Z,57.32
2019-06-08T11:43:00.415Z,57.13
2019-06-08T11:44:00.107Z,57.51
2019-06-08T11:45:00.312Z,57.70
2019-06-08T11:46:00.550Z,58.37
2019-06-08T11:47:00.398Z,57.70
2019-06-08T11:48:00.499Z,57.42
2019-06-08T11:49:01.168Z,57.20
2019-06-08T11:50:00.415Z,57.32
2019-06-08T11:51:00.521Z,58.28
2019-06-08T11:52:00.374Z,57.48
2019-06-08T11:53:00.658Z,57.42
2019-06-08T11:53:59.440Z,57.80
2019-06-08T11:55:01.754Z,57.20
2019-06-08T11:55:58.893Z,56.84
2019-06-08T11:56:58.850Z,57.03
2019-06-08T11:57:58.808Z,57.60
2019-06-08T11:58:58.764Z,56.65
2019-06-08T11:59:58.719Z,56.74
2019-06-08T12:01:01.435Z,57.90
2019-06-08T12:01:58.742Z,57.51
2019-06-08T12:02:58.588Z,56.36
2019-06-08T12:03:58.549Z,56.55
2019-06-08T12:04:58.502Z,56.84
2019-06-08T12:05:58.463Z,56.74
2019-06-08T12:06:58.577Z,56.74
2019-06-08T12:07:58.371Z,56.74
2019-06-08T12:09:00.251Z,56.84
2019-06-08T12:09:58.439Z,55.78
2019-06-08T12:11:02.085Z,55.78
2019-06-08T12:11:58.217Z,56.20
2019-06-08T12:12:58.152Z,55.71
2019-06-08T12:13:58.566Z,55.81
2019-06-08T12:14:58.346Z,55.71
2019-06-08T12:15:58.875Z,55.71
2019-06-08T12:16:58.160Z,56.58
2019-06-08T12:17:58.703Z,57.06
2019-06-08T12:18:58.644Z,56.00
2019-06-08T12:19:57.847Z,55.81
2019-06-08T12:20:58.339Z,54.94
2019-06-08T12:21:58.100Z,54.65
2019-06-08T12:22:57.715Z,54.85
2019-06-08T12:23:57.671Z,55.04
2019-06-08T12:24:57.633Z,54.94
2019-06-08T12:25:57.589Z,55.81
2019-06-08T12:27:07.554Z,56.20
2019-06-08T12:27:58.521Z,56.77
2019-06-08T12:28:58.013Z,57.35
2019-06-08T12:29:58.703Z,55.52
2019-06-08T12:31:00.721Z,56.00
2019-06-08T12:32:00.087Z,55.55
2019-06-08T12:32:58.166Z,55.45
2019-06-08T12:33:58.757Z,54.87
2019-06-08T12:34:59.787Z,54.97
2019-06-08T12:35:57.903Z,56.03
2019-06-08T12:36:58.310Z,55.00
2019-06-08T12:37:58.125Z,54.90
2019-06-08T12:38:58.586Z,53.36
2019-06-08T12:39:57.986Z,53.45
2019-06-08T12:40:58.619Z,54.03
2019-06-08T12:41:58.335Z,53.29
2019-06-08T12:42:59.449Z,53.19
2019-06-08T12:43:58.044Z,53.29
2019-06-08T12:44:58.750Z,52.91
2019-06-08T12:45:58.045Z,53.51
2019-06-08T12:46:58.549Z,52.83
2019-06-08T12:47:56.679Z,52.16
2019-06-08T12:48:58.272Z,51.77
2019-06-08T12:49:58.461Z,51.77
2019-06-08T12:50:56.508Z,51.29
2019-06-08T12:51:58.083Z,51.00
2019-06-08T12:52:58.383Z,51.77
2019-06-08T12:53:59.895Z,50.81
2019-06-08T12:55:05.544Z,51.20
2019-06-08T12:55:57.939Z,51.89
2019-06-08T12:56:57.980Z,50.84
2019-06-08T12:57:58.129Z,50.09